sensor_id;sensor_type;location;lat;lon;timestamp;P1;durP1;ratioP1;P2;durP2;ratioP2
1346;SDS011;667;48.796;9.480;2023-01-01T00:01:24;152.93;;;122.50;;
1346;SDS011;667;48.796;9.480;2023-01-01T00:03:50;137.75;;;117.32;;
1346;SDS011;667;48.796;9.480;2023-01-01T00:06:20;171.90;;;130.10;;
1346;SDS011;667;48.796;9.480;2023-01-01T00:08:46;169.93;;;124.18;;
1346;SDS011;667;48.796;9.480;2023-01-01T00:11:12;149.07;;;113.97;;
1346;SDS011;667;48.796;9.480;2023-01-01T00:13:38;143.73;;;116.47;;
1346;SDS011;667;48.796;9.480;2023-01-01T00:18:35;130.90;;;104.28;;
1346;SDS011;667;48.796;9.480;2023-01-01T00:21:05;136.30;;;106.60;;
1346;SDS011;667;48.796;9.480;2023-01-01T00:23:33;161.95;;;128.55;;
1346;SDS011;667;48.796;9.480;2023-01-01T00:25:59;181.63;;;139.50;;
1346;SDS011;667;48.796;9.480;2023-01-01T00:28:25;165.13;;;133.23;;
1346;SDS011;667;48.796;9.480;2023-01-01T00:30:51;176.03;;;136.83;;
1346;SDS011;667;48.796;9.480;2023-01-01T00:33:16;159.20;;;118.90;;
1346;SDS011;667;48.796;9.480;2023-01-01T00:35:42;98.30;;;76.17;;
1346;SDS011;667;48.796;9.480;2023-01-01T00:38:08;83.37;;;62.53;;
1346;SDS011;667;48.796;9.480;2023-01-01T00:40:33;26.97;;;23.23;;
1346;SDS011;667;48.796;9.480;2023-01-01T00:42:59;29.73;;;23.50;;
1346;SDS011;667;48.796;9.480;2023-01-01T00:45:24;27.17;;;22.20;;
1346;SDS011;667;48.796;9.480;2023-01-01T00:47:50;32.80;;;27.10;;
1346;SDS011;667;48.796;9.480;2023-01-01T00:50:17;36.72;;;30.38;;
1346;SDS011;667;48.796;9.480;2023-01-01T00:52:43;38.78;;;30.77;;
1346;SDS011;667;48.796;9.480;2023-01-01T00:55:09;39.80;;;29.90;;
1346;SDS011;667;48.796;9.480;2023-01-01T00:57:35;38.05;;;31.02;;
1346;SDS011;667;48.796;9.480;2023-01-01T01:00:01;43.60;;;33.17;;
1346;SDS011;667;48.796;9.480;2023-01-01T01:02:26;38.50;;;33.50;;
1346;SDS011;667;48.796;9.480;2023-01-01T01:04:52;44.97;;;34.40;;
1346;SDS011;667;48.796;9.480;2023-01-01T01:07:17;43.87;;;34.80;;
1346;SDS011;667;48.796;9.480;2023-01-01T01:09:43;44.90;;;35.73;;
1346;SDS011;667;48.796;9.480;2023-01-01T01:12:09;46.17;;;36.97;;
1346;SDS011;667;48.796;9.480;2023-01-01T01:14:34;48.77;;;36.40;;
1346;SDS011;667;48.796;9.480;2023-01-01T01:17:00;47.60;;;38.00;;
1346;SDS011;667;48.796;9.480;2023-01-01T01:19:25;46.60;;;36.77;;
1346;SDS011;667;48.796;9.480;2023-01-01T01:21:51;44.53;;;36.20;;
1346;SDS011;667;48.796;9.480;2023-01-01T01:24:16;48.40;;;38.27;;
1346;SDS011;667;48.796;9.480;2023-01-01T01:26:42;45.20;;;37.77;;
1346;SDS011;667;48.796;9.480;2023-01-01T01:29:08;46.10;;;37.73;;
1346;SDS011;667;48.796;9.480;2023-01-01T01:31:33;46.90;;;39.60;;
1346;SDS011;667;48.796;9.480;2023-01-01T01:33:59;49.77;;;38.53;;
1346;SDS011;667;48.796;9.480;2023-01-01T01:36:26;47.97;;;38.25;;
1346;SDS011;667;48.796;9.480;2023-01-01T01:38:52;45.17;;;37.17;;
1346;SDS011;667;48.796;9.480;2023-01-01T01:41:19;48.25;;;37.60;;
1346;SDS011;667;48.796;9.480;2023-01-01T01:43:54;48.55;;;38.00;;
1346;SDS011;667;48.796;9.480;2023-01-01T01:46:25;45.35;;;37.22;;
1346;SDS011;667;48.796;9.480;2023-01-01T01:48:53;47.58;;;38.53;;
1346;SDS011;667;48.796;9.480;2023-01-01T01:51:25;35.72;;;30.05;;
1346;SDS011;667;48.796;9.480;2023-01-01T01:53:55;45.58;;;35.17;;
1346;SDS011;667;48.796;9.480;2023-01-01T01:56:27;40.65;;;33.67;;
1346;SDS011;667;48.796;9.480;2023-01-01T01:59:04;42.67;;;33.60;;
1346;SDS011;667;48.796;9.480;2023-01-01T02:01:30;40.67;;;32.70;;
1346;SDS011;667;48.796;9.480;2023-01-01T02:03:57;38.83;;;31.37;;
1346;SDS011;667;48.796;9.480;2023-01-01T02:06:27;40.75;;;31.85;;
1346;SDS011;667;48.796;9.480;2023-01-01T02:08:55;40.03;;;31.98;;
1346;SDS011;667;48.796;9.480;2023-01-01T02:11:22;38.08;;;29.95;;
1346;SDS011;667;48.796;9.480;2023-01-01T02:13:48;37.73;;;29.70;;
1346;SDS011;667;48.796;9.480;2023-01-01T02:16:19;30.35;;;26.98;;
1346;SDS011;667;48.796;9.480;2023-01-01T02:21:24;37.78;;;28.25;;
1346;SDS011;667;48.796;9.480;2023-01-01T02:24:00;36.13;;;29.10;;
1346;SDS011;667;48.796;9.480;2023-01-01T02:29:06;36.60;;;30.75;;
1346;SDS011;667;48.796;9.480;2023-01-01T02:31:43;37.88;;;29.52;;
1346;SDS011;667;48.796;9.480;2023-01-01T02:34:13;38.72;;;28.70;;
1346;SDS011;667;48.796;9.480;2023-01-01T02:36:47;33.78;;;28.88;;
1346;SDS011;667;48.796;9.480;2023-01-01T02:39:15;36.10;;;28.40;;
1346;SDS011;667;48.796;9.480;2023-01-01T02:41:45;41.05;;;28.95;;
1346;SDS011;667;48.796;9.480;2023-01-01T02:44:15;40.97;;;30.55;;
1346;SDS011;667;48.796;9.480;2023-01-01T02:46:43;40.45;;;31.35;;
1346;SDS011;667;48.796;9.480;2023-01-01T02:49:10;49.00;;;39.83;;
1346;SDS011;667;48.796;9.480;2023-01-01T03:00:08;73.75;;;59.28;;
1346;SDS011;667;48.796;9.480;2023-01-01T03:08:11;65.82;;;49.50;;
1346;SDS011;667;48.796;9.480;2023-01-01T03:15:39;46.43;;;36.30;;
1346;SDS011;667;48.796;9.480;2023-01-01T03:18:40;49.22;;;39.50;;
1346;SDS011;667;48.796;9.480;2023-01-01T03:21:12;49.90;;;38.75;;
1346;SDS011;667;48.796;9.480;2023-01-01T03:23:42;42.22;;;36.10;;
1346;SDS011;667;48.796;9.480;2023-01-01T03:26:11;46.97;;;37.33;;
1346;SDS011;667;48.796;9.480;2023-01-01T03:28:43;42.90;;;34.50;;
1346;SDS011;667;48.796;9.480;2023-01-01T03:31:14;43.50;;;32.17;;
1346;SDS011;667;48.796;9.480;2023-01-01T03:33:47;36.40;;;31.77;;
1346;SDS011;667;48.796;9.480;2023-01-01T03:36:29;39.80;;;33.65;;
1346;SDS011;667;48.796;9.480;2023-01-01T03:39:00;38.05;;;30.70;;
1346;SDS011;667;48.796;9.480;2023-01-01T03:41:35;35.63;;;29.60;;
1346;SDS011;667;48.796;9.480;2023-01-01T03:44:03;31.67;;;26.95;;
1346;SDS011;667;48.796;9.480;2023-01-01T03:46:42;30.38;;;25.80;;
1346;SDS011;667;48.796;9.480;2023-01-01T03:49:09;12.52;;;11.23;;
1346;SDS011;667;48.796;9.480;2023-01-01T04:00:05;14.27;;;11.85;;
1346;SDS011;667;48.796;9.480;2023-01-01T04:02:51;7.63;;;6.72;;
1346;SDS011;667;48.796;9.480;2023-01-01T04:05:38;7.40;;;6.70;;
1346;SDS011;667;48.796;9.480;2023-01-01T04:08:05;7.05;;;6.10;;
1346;SDS011;667;48.796;9.480;2023-01-01T04:10:32;6.38;;;5.78;;
1346;SDS011;667;48.796;9.480;2023-01-01T04:13:01;5.13;;;4.57;;
1346;SDS011;667;48.796;9.480;2023-01-01T04:15:29;8.93;;;6.80;;
1346;SDS011;667;48.796;9.480;2023-01-01T04:17:55;13.32;;;9.18;;
1346;SDS011;667;48.796;9.480;2023-01-01T04:20:21;14.10;;;11.27;;
1346;SDS011;667;48.796;9.480;2023-01-01T04:22:46;15.73;;;11.60;;
1346;SDS011;667;48.796;9.480;2023-01-01T04:25:12;12.73;;;11.43;;
1346;SDS011;667;48.796;9.480;2023-01-01T04:27:38;8.90;;;8.00;;
1346;SDS011;667;48.796;9.480;2023-01-01T04:30:05;8.95;;;7.97;;
1346;SDS011;667;48.796;9.480;2023-01-01T04:32:33;10.23;;;8.85;;
1346;SDS011;667;48.796;9.480;2023-01-01T04:34:59;10.83;;;8.57;;
1346;SDS011;667;48.796;9.480;2023-01-01T04:37:25;13.97;;;11.50;;
1346;SDS011;667;48.796;9.480;2023-01-01T04:39:50;11.97;;;10.73;;
1346;SDS011;667;48.796;9.480;2023-01-01T04:42:16;12.77;;;10.90;;
1346;SDS011;667;48.796;9.480;2023-01-01T04:44:42;12.70;;;10.50;;
1346;SDS011;667;48.796;9.480;2023-01-01T04:47:07;15.47;;;10.00;;
1346;SDS011;667;48.796;9.480;2023-01-01T04:49:33;14.83;;;9.47;;
1346;SDS011;667;48.796;9.480;2023-01-01T04:51:59;13.40;;;8.63;;
1346;SDS011;667;48.796;9.480;2023-01-01T04:54:24;11.10;;;9.10;;
1346;SDS011;667;48.796;9.480;2023-01-01T04:56:50;8.93;;;8.03;;
1346;SDS011;667;48.796;9.480;2023-01-01T04:59:15;8.20;;;6.30;;
1346;SDS011;667;48.796;9.480;2023-01-01T05:01:41;7.67;;;6.80;;
1346;SDS011;667;48.796;9.480;2023-01-01T05:04:08;5.73;;;5.00;;
1346;SDS011;667;48.796;9.480;2023-01-01T05:06:37;6.75;;;5.00;;
1346;SDS011;667;48.796;9.480;2023-01-01T05:09:02;5.83;;;5.03;;
1346;SDS011;667;48.796;9.480;2023-01-01T05:11:28;6.17;;;4.10;;
1346;SDS011;667;48.796;9.480;2023-01-01T05:13:55;4.85;;;3.80;;
1346;SDS011;667;48.796;9.480;2023-01-01T05:16:23;5.85;;;5.15;;
1346;SDS011;667;48.796;9.480;2023-01-01T05:18:53;7.30;;;4.70;;
1346;SDS011;667;48.796;9.480;2023-01-01T05:21:21;4.22;;;3.72;;
1346;SDS011;667;48.796;9.480;2023-01-01T05:23:58;6.70;;;4.85;;
1346;SDS011;667;48.796;9.480;2023-01-01T05:26:26;5.55;;;3.80;;
1346;SDS011;667;48.796;9.480;2023-01-01T05:28:54;4.25;;;3.85;;
1346;SDS011;667;48.796;9.480;2023-01-01T05:31:21;5.07;;;4.20;;
1346;SDS011;667;48.796;9.480;2023-01-01T05:33:49;5.30;;;4.15;;
1346;SDS011;667;48.796;9.480;2023-01-01T05:36:17;4.85;;;4.38;;
1346;SDS011;667;48.796;9.480;2023-01-01T05:38:48;5.50;;;4.03;;
1346;SDS011;667;48.796;9.480;2023-01-01T05:41:15;4.88;;;3.80;;
1346;SDS011;667;48.796;9.480;2023-01-01T05:43:41;4.50;;;3.70;;
1346;SDS011;667;48.796;9.480;2023-01-01T05:46:11;4.10;;;3.10;;
1346;SDS011;667;48.796;9.480;2023-01-01T05:48:38;4.10;;;3.60;;
1346;SDS011;667;48.796;9.480;2023-01-01T05:51:04;3.70;;;3.10;;
1346;SDS011;667;48.796;9.480;2023-01-01T05:53:32;5.90;;;3.53;;
1346;SDS011;667;48.796;9.480;2023-01-01T05:55:58;5.43;;;3.65;;
1346;SDS011;667;48.796;9.480;2023-01-01T05:58:24;4.53;;;4.10;;
1346;SDS011;667;48.796;9.480;2023-01-01T06:00:51;4.07;;;3.67;;
1346;SDS011;667;48.796;9.480;2023-01-01T06:03:17;3.75;;;3.30;;
1346;SDS011;667;48.796;9.480;2023-01-01T06:05:43;4.00;;;3.20;;
1346;SDS011;667;48.796;9.480;2023-01-01T06:08:09;4.00;;;3.40;;
1346;SDS011;667;48.796;9.480;2023-01-01T06:10:34;3.70;;;3.03;;
1346;SDS011;667;48.796;9.480;2023-01-01T06:13:00;3.57;;;3.10;;
1346;SDS011;667;48.796;9.480;2023-01-01T06:15:25;4.93;;;3.40;;
1346;SDS011;667;48.796;9.480;2023-01-01T06:17:51;3.55;;;3.20;;
1346;SDS011;667;48.796;9.480;2023-01-01T06:20:17;5.10;;;3.53;;
1346;SDS011;667;48.796;9.480;2023-01-01T06:22:43;3.50;;;3.20;;
1346;SDS011;667;48.796;9.480;2023-01-01T06:25:08;4.50;;;3.43;;
1346;SDS011;667;48.796;9.480;2023-01-01T06:27:34;3.58;;;2.85;;
1346;SDS011;667;48.796;9.480;2023-01-01T06:30:01;6.60;;;3.37;;
1346;SDS011;667;48.796;9.480;2023-01-01T06:32:27;4.00;;;3.53;;
1346;SDS011;667;48.796;9.480;2023-01-01T06:34:53;6.00;;;3.90;;
1346;SDS011;667;48.796;9.480;2023-01-01T06:37:18;4.53;;;3.00;;
1346;SDS011;667;48.796;9.480;2023-01-01T06:39:44;5.10;;;4.10;;
1346;SDS011;667;48.796;9.480;2023-01-01T06:42:10;4.17;;;3.60;;
1346;SDS011;667;48.796;9.480;2023-01-01T06:44:35;3.97;;;3.47;;
1346;SDS011;667;48.796;9.480;2023-01-01T06:47:01;4.60;;;3.60;;
1346;SDS011;667;48.796;9.480;2023-01-01T06:49:26;5.73;;;4.20;;
1346;SDS011;667;48.796;9.480;2023-01-01T06:51:52;5.60;;;4.43;;
1346;SDS011;667;48.796;9.480;2023-01-01T06:54:18;6.63;;;4.20;;
1346;SDS011;667;48.796;9.480;2023-01-01T06:56:43;5.20;;;4.10;;
1346;SDS011;667;48.796;9.480;2023-01-01T06:59:09;4.17;;;3.77;;
1346;SDS011;667;48.796;9.480;2023-01-01T07:01:35;5.20;;;4.67;;
1346;SDS011;667;48.796;9.480;2023-01-01T07:04:05;7.60;;;4.63;;
1346;SDS011;667;48.796;9.480;2023-01-01T07:06:32;7.85;;;5.75;;
1346;SDS011;667;48.796;9.480;2023-01-01T07:08:59;6.20;;;4.30;;
1346;SDS011;667;48.796;9.480;2023-01-01T07:11:25;5.38;;;4.88;;
1346;SDS011;667;48.796;9.480;2023-01-01T07:13:51;6.70;;;5.50;;
1346;SDS011;667;48.796;9.480;2023-01-01T07:16:17;7.10;;;5.93;;
1346;SDS011;667;48.796;9.480;2023-01-01T07:18:43;6.97;;;5.30;;
1346;SDS011;667;48.796;9.480;2023-01-01T07:21:26;6.60;;;5.68;;
1346;SDS011;667;48.796;9.480;2023-01-01T07:23:55;7.45;;;6.13;;
1346;SDS011;667;48.796;9.480;2023-01-01T07:26:25;6.28;;;5.43;;
1346;SDS011;667;48.796;9.480;2023-01-01T07:28:51;6.82;;;5.97;;
1346;SDS011;667;48.796;9.480;2023-01-01T07:31:17;8.13;;;6.23;;
1346;SDS011;667;48.796;9.480;2023-01-01T07:33:43;7.60;;;6.23;;
1346;SDS011;667;48.796;9.480;2023-01-01T07:36:09;8.10;;;7.30;;
1346;SDS011;667;48.796;9.480;2023-01-01T07:38:34;7.07;;;6.40;;
1346;SDS011;667;48.796;9.480;2023-01-01T07:41:00;8.97;;;6.40;;
1346;SDS011;667;48.796;9.480;2023-01-01T07:43:26;7.20;;;5.93;;
1346;SDS011;667;48.796;9.480;2023-01-01T07:45:51;7.43;;;5.67;;
1346;SDS011;667;48.796;9.480;2023-01-01T07:48:17;8.00;;;6.07;;
1346;SDS011;667;48.796;9.480;2023-01-01T07:50:42;23.57;;;15.63;;
1346;SDS011;667;48.796;9.480;2023-01-01T07:53:08;18.43;;;15.07;;
1346;SDS011;667;48.796;9.480;2023-01-01T07:55:33;27.90;;;17.93;;
1346;SDS011;667;48.796;9.480;2023-01-01T07:57:59;20.40;;;15.07;;
1346;SDS011;667;48.796;9.480;2023-01-01T08:00:25;8.83;;;7.93;;
1346;SDS011;667;48.796;9.480;2023-01-01T08:02:51;7.75;;;6.00;;
1346;SDS011;667;48.796;9.480;2023-01-01T08:05:17;10.60;;;7.27;;
1346;SDS011;667;48.796;9.480;2023-01-01T08:07:46;9.88;;;8.05;;
1346;SDS011;667;48.796;9.480;2023-01-01T08:10:13;17.60;;;11.85;;
1346;SDS011;667;48.796;9.480;2023-01-01T08:12:40;34.70;;;24.73;;
1346;SDS011;667;48.796;9.480;2023-01-01T08:15:05;55.97;;;38.27;;
1346;SDS011;667;48.796;9.480;2023-01-01T08:17:32;71.60;;;47.97;;
1346;SDS011;667;48.796;9.480;2023-01-01T08:19:57;41.70;;;28.73;;
1346;SDS011;667;48.796;9.480;2023-01-01T08:22:23;25.90;;;18.30;;
1346;SDS011;667;48.796;9.480;2023-01-01T08:24:48;23.63;;;18.03;;
1346;SDS011;667;48.796;9.480;2023-01-01T08:27:14;19.53;;;14.10;;
1346;SDS011;667;48.796;9.480;2023-01-01T08:29:40;15.57;;;11.52;;
1346;SDS011;667;48.796;9.480;2023-01-01T08:32:07;7.75;;;6.95;;
1346;SDS011;667;48.796;9.480;2023-01-01T08:34:32;10.17;;;6.97;;
1346;SDS011;667;48.796;9.480;2023-01-01T08:36:58;9.80;;;7.03;;
1346;SDS011;667;48.796;9.480;2023-01-01T08:39:24;7.40;;;6.40;;
1346;SDS011;667;48.796;9.480;2023-01-01T08:41:50;8.32;;;6.63;;
1346;SDS011;667;48.796;9.480;2023-01-01T08:44:15;8.70;;;7.00;;
1346;SDS011;667;48.796;9.480;2023-01-01T08:46:41;8.60;;;6.60;;
1346;SDS011;667;48.796;9.480;2023-01-01T08:49:06;8.40;;;7.50;;
1346;SDS011;667;48.796;9.480;2023-01-01T08:51:32;16.23;;;10.90;;
1346;SDS011;667;48.796;9.480;2023-01-01T08:53:58;16.40;;;13.43;;
1346;SDS011;667;48.796;9.480;2023-01-01T08:56:23;21.73;;;15.27;;
1346;SDS011;667;48.796;9.480;2023-01-01T08:58:49;9.60;;;8.60;;
1346;SDS011;667;48.796;9.480;2023-01-01T09:01:14;10.73;;;8.03;;
1346;SDS011;667;48.796;9.480;2023-01-01T09:03:40;12.13;;;9.37;;
1346;SDS011;667;48.796;9.480;2023-01-01T09:06:06;10.27;;;9.25;;
1346;SDS011;667;48.796;9.480;2023-01-01T09:08:32;11.53;;;10.53;;
1346;SDS011;667;48.796;9.480;2023-01-01T09:10:58;9.90;;;8.10;;
1346;SDS011;667;48.796;9.480;2023-01-01T09:13:25;10.27;;;7.45;;
1346;SDS011;667;48.796;9.480;2023-01-01T09:15:51;7.70;;;5.13;;
1346;SDS011;667;48.796;9.480;2023-01-01T09:18:17;5.50;;;5.00;;
1346;SDS011;667;48.796;9.480;2023-01-01T09:20:43;6.13;;;5.50;;
1346;SDS011;667;48.796;9.480;2023-01-01T09:23:09;8.00;;;5.00;;
1346;SDS011;667;48.796;9.480;2023-01-01T09:25:35;6.50;;;5.10;;
1346;SDS011;667;48.796;9.480;2023-01-01T09:28:02;6.10;;;4.80;;
1346;SDS011;667;48.796;9.480;2023-01-01T09:30:29;8.33;;;5.40;;
1346;SDS011;667;48.796;9.480;2023-01-01T09:32:55;7.50;;;5.27;;
1346;SDS011;667;48.796;9.480;2023-01-01T09:35:21;7.63;;;6.13;;
1346;SDS011;667;48.796;9.480;2023-01-01T09:37:46;9.07;;;8.17;;
1346;SDS011;667;48.796;9.480;2023-01-01T09:40:26;9.63;;;7.63;;
1346;SDS011;667;48.796;9.480;2023-01-01T09:43:03;10.82;;;8.90;;
1346;SDS011;667;48.796;9.480;2023-01-01T09:46:00;9.23;;;8.27;;
1346;SDS011;667;48.796;9.480;2023-01-01T09:48:30;7.07;;;6.38;;
1346;SDS011;667;48.796;9.480;2023-01-01T09:50:58;7.00;;;5.82;;
1346;SDS011;667;48.796;9.480;2023-01-01T09:53:32;6.20;;;5.60;;
1346;SDS011;667;48.796;9.480;2023-01-01T09:56:05;7.10;;;5.30;;
1346;SDS011;667;48.796;9.480;2023-01-01T09:58:38;6.25;;;4.63;;
1346;SDS011;667;48.796;9.480;2023-01-01T10:06:31;5.70;;;4.67;;
1346;SDS011;667;48.796;9.480;2023-01-01T10:11:59;5.97;;;4.13;;
1346;SDS011;667;48.796;9.480;2023-01-01T10:14:49;5.07;;;4.27;;
1346;SDS011;667;48.796;9.480;2023-01-01T10:17:22;7.57;;;4.37;;
1346;SDS011;667;48.796;9.480;2023-01-01T10:19:57;4.23;;;3.93;;
1346;SDS011;667;48.796;9.480;2023-01-01T10:22:30;4.40;;;4.00;;
1346;SDS011;667;48.796;9.480;2023-01-01T10:25:00;5.73;;;3.97;;
1346;SDS011;667;48.796;9.480;2023-01-01T10:27:36;5.73;;;5.23;;
1346;SDS011;667;48.796;9.480;2023-01-01T10:30:14;5.83;;;4.83;;
1346;SDS011;667;48.796;9.480;2023-01-01T10:32:46;4.87;;;4.30;;
1346;SDS011;667;48.796;9.480;2023-01-01T10:35:13;4.30;;;3.63;;
1346;SDS011;667;48.796;9.480;2023-01-01T10:37:41;4.93;;;4.40;;
1346;SDS011;667;48.796;9.480;2023-01-01T10:42:44;5.20;;;3.97;;
1346;SDS011;667;48.796;9.480;2023-01-01T10:45:14;8.93;;;6.43;;
1346;SDS011;667;48.796;9.480;2023-01-01T10:53:20;7.17;;;6.50;;
1346;SDS011;667;48.796;9.480;2023-01-01T10:56:01;6.63;;;6.00;;
1346;SDS011;667;48.796;9.480;2023-01-01T11:01:02;8.07;;;6.47;;
1346;SDS011;667;48.796;9.480;2023-01-01T11:03:29;7.07;;;6.47;;
1346;SDS011;667;48.796;9.480;2023-01-01T11:06:05;7.13;;;5.70;;
1346;SDS011;667;48.796;9.480;2023-01-01T11:08:35;6.93;;;6.20;;
1346;SDS011;667;48.796;9.480;2023-01-01T11:11:03;5.83;;;5.13;;
1346;SDS011;667;48.796;9.480;2023-01-01T11:13:29;5.40;;;4.87;;
1346;SDS011;667;48.796;9.480;2023-01-01T11:15:56;5.77;;;4.20;;
1346;SDS011;667;48.796;9.480;2023-01-01T11:18:24;5.93;;;4.90;;
1346;SDS011;667;48.796;9.480;2023-01-01T11:20:59;8.07;;;7.20;;
1346;SDS011;667;48.796;9.480;2023-01-01T11:23:28;7.83;;;5.60;;
1346;SDS011;667;48.796;9.480;2023-01-01T11:26:02;4.27;;;3.83;;
1346;SDS011;667;48.796;9.480;2023-01-01T11:28:30;3.27;;;3.07;;
1346;SDS011;667;48.796;9.480;2023-01-01T11:31:17;4.43;;;2.97;;
1346;SDS011;667;48.796;9.480;2023-01-01T11:33:50;5.37;;;2.60;;
1346;SDS011;667;48.796;9.480;2023-01-01T11:36:24;4.17;;;2.70;;
1346;SDS011;667;48.796;9.480;2023-01-01T11:41:41;4.40;;;2.90;;
1346;SDS011;667;48.796;9.480;2023-01-01T11:44:09;4.23;;;2.53;;
1346;SDS011;667;48.796;9.480;2023-01-01T11:46:37;5.43;;;2.73;;
1346;SDS011;667;48.796;9.480;2023-01-01T11:49:11;3.47;;;2.57;;
1346;SDS011;667;48.796;9.480;2023-01-01T11:51:45;8.30;;;2.63;;
1346;SDS011;667;48.796;9.480;2023-01-01T11:57:06;4.33;;;3.00;;
1346;SDS011;667;48.796;9.480;2023-01-01T11:59:52;4.70;;;2.73;;
1346;SDS011;667;48.796;9.480;2023-01-01T12:02:47;3.20;;;2.37;;
1346;SDS011;667;48.796;9.480;2023-01-01T12:05:20;7.10;;;3.00;;
1346;SDS011;667;48.796;9.480;2023-01-01T12:07:53;6.13;;;2.73;;
1346;SDS011;667;48.796;9.480;2023-01-01T12:10:26;4.13;;;2.80;;
1346;SDS011;667;48.796;9.480;2023-01-01T12:15:35;4.30;;;3.13;;
1346;SDS011;667;48.796;9.480;2023-01-01T12:20:51;3.50;;;2.70;;
1346;SDS011;667;48.796;9.480;2023-01-01T12:23:22;5.43;;;2.70;;
1346;SDS011;667;48.796;9.480;2023-01-01T12:25:51;4.13;;;3.40;;
1346;SDS011;667;48.796;9.480;2023-01-01T12:33:36;3.90;;;3.23;;
1346;SDS011;667;48.796;9.480;2023-01-01T12:50:07;5.47;;;3.13;;
1346;SDS011;667;48.796;9.480;2023-01-01T12:55:57;3.77;;;3.10;;
1346;SDS011;667;48.796;9.480;2023-01-01T12:58:32;5.00;;;2.30;;
1346;SDS011;667;48.796;9.480;2023-01-01T13:01:17;4.20;;;2.57;;
1346;SDS011;667;48.796;9.480;2023-01-01T13:03:51;7.87;;;3.40;;
1346;SDS011;667;48.796;9.480;2023-01-01T13:06:26;5.80;;;3.20;;
1346;SDS011;667;48.796;9.480;2023-01-01T13:09:06;5.50;;;3.40;;
1346;SDS011;667;48.796;9.480;2023-01-01T13:11:39;4.87;;;3.13;;
1346;SDS011;667;48.796;9.480;2023-01-01T13:14:06;3.60;;;3.10;;
1346;SDS011;667;48.796;9.480;2023-01-01T13:16:39;3.40;;;3.10;;
1346;SDS011;667;48.796;9.480;2023-01-01T13:19:21;5.20;;;3.60;;
1346;SDS011;667;48.796;9.480;2023-01-01T13:21:55;5.97;;;3.43;;
1346;SDS011;667;48.796;9.480;2023-01-01T13:24:21;5.73;;;4.07;;
1346;SDS011;667;48.796;9.480;2023-01-01T13:26:49;6.33;;;4.13;;
1346;SDS011;667;48.796;9.480;2023-01-01T13:39:54;4.03;;;3.20;;
1346;SDS011;667;48.796;9.480;2023-01-01T13:59:37;5.80;;;3.53;;
1346;SDS011;667;48.796;9.480;2023-01-01T14:02:21;4.20;;;2.93;;
1346;SDS011;667;48.796;9.480;2023-01-01T14:04:56;5.33;;;3.70;;
1346;SDS011;667;48.796;9.480;2023-01-01T14:07:30;4.03;;;3.50;;
1346;SDS011;667;48.796;9.480;2023-01-01T14:12:43;3.97;;;3.20;;
1346;SDS011;667;48.796;9.480;2023-01-01T14:17:50;4.10;;;3.33;;
1346;SDS011;667;48.796;9.480;2023-01-01T14:20:18;6.00;;;3.97;;
1346;SDS011;667;48.796;9.480;2023-01-01T14:22:47;5.53;;;3.97;;
1346;SDS011;667;48.796;9.480;2023-01-01T14:25:25;5.57;;;4.20;;
1346;SDS011;667;48.796;9.480;2023-01-01T14:27:53;4.37;;;3.00;;
1346;SDS011;667;48.796;9.480;2023-01-01T14:30:20;9.13;;;4.23;;
1346;SDS011;667;48.796;9.480;2023-01-01T14:32:54;5.97;;;4.80;;
1346;SDS011;667;48.796;9.480;2023-01-01T14:35:21;6.97;;;3.80;;
1346;SDS011;667;48.796;9.480;2023-01-01T14:37:47;6.43;;;3.57;;
1346;SDS011;667;48.796;9.480;2023-01-01T14:42:59;4.60;;;4.03;;
1346;SDS011;667;48.796;9.480;2023-01-01T14:45:29;6.03;;;3.97;;
1346;SDS011;667;48.796;9.480;2023-01-01T14:47:58;7.00;;;4.00;;
1346;SDS011;667;48.796;9.480;2023-01-01T14:50:28;3.73;;;3.33;;
1346;SDS011;667;48.796;9.480;2023-01-01T14:52:59;5.90;;;3.80;;
1346;SDS011;667;48.796;9.480;2023-01-01T14:55:41;5.93;;;3.70;;
1346;SDS011;667;48.796;9.480;2023-01-01T14:58:12;3.97;;;3.57;;
1346;SDS011;667;48.796;9.480;2023-01-01T15:00:42;6.07;;;4.63;;
1346;SDS011;667;48.796;9.480;2023-01-01T15:03:12;7.53;;;4.33;;
1346;SDS011;667;48.796;9.480;2023-01-01T15:05:39;5.50;;;3.63;;
1346;SDS011;667;48.796;9.480;2023-01-01T15:08:15;5.50;;;3.60;;
1346;SDS011;667;48.796;9.480;2023-01-01T15:10:43;7.03;;;4.23;;
1346;SDS011;667;48.796;9.480;2023-01-01T15:13:12;7.27;;;4.10;;
1346;SDS011;667;48.796;9.480;2023-01-01T15:15:43;8.00;;;4.10;;
1346;SDS011;667;48.796;9.480;2023-01-01T15:21:15;4.70;;;4.27;;
1346;SDS011;667;48.796;9.480;2023-01-01T15:23:47;6.50;;;4.70;;
1346;SDS011;667;48.796;9.480;2023-01-01T15:26:24;6.30;;;5.13;;
1346;SDS011;667;48.796;9.480;2023-01-01T15:29:16;5.88;;;4.70;;
1346;SDS011;667;48.796;9.480;2023-01-01T15:31:52;9.45;;;6.00;;
1346;SDS011;667;48.796;9.480;2023-01-01T15:34:22;6.43;;;5.18;;
1346;SDS011;667;48.796;9.480;2023-01-01T15:36:52;8.32;;;5.90;;
1346;SDS011;667;48.796;9.480;2023-01-01T15:39:20;8.77;;;7.50;;
1346;SDS011;667;48.796;9.480;2023-01-01T15:41:47;9.10;;;6.50;;
1346;SDS011;667;48.796;9.480;2023-01-01T15:46:47;5.30;;;4.17;;
1346;SDS011;667;48.796;9.480;2023-01-01T15:49:22;5.28;;;4.70;;
1346;SDS011;667;48.796;9.480;2023-01-01T15:51:51;5.50;;;4.55;;
1346;SDS011;667;48.796;9.480;2023-01-01T15:54:19;6.70;;;4.90;;
1346;SDS011;667;48.796;9.480;2023-01-01T15:56:44;4.80;;;3.83;;
1346;SDS011;667;48.796;9.480;2023-01-01T15:59:16;4.50;;;4.10;;
1346;SDS011;667;48.796;9.480;2023-01-01T16:01:50;6.82;;;5.20;;
1346;SDS011;667;48.796;9.480;2023-01-01T16:04:20;5.28;;;4.80;;
1346;SDS011;667;48.796;9.480;2023-01-01T16:06:50;5.20;;;3.72;;
1346;SDS011;667;48.796;9.480;2023-01-01T16:09:17;7.90;;;4.55;;
1346;SDS011;667;48.796;9.480;2023-01-01T16:11:44;8.13;;;5.93;;
1346;SDS011;667;48.796;9.480;2023-01-01T16:14:10;5.97;;;5.25;;
1346;SDS011;667;48.796;9.480;2023-01-01T16:16:37;6.20;;;5.60;;
1346;SDS011;667;48.796;9.480;2023-01-01T16:19:03;7.82;;;5.15;;
1346;SDS011;667;48.796;9.480;2023-01-01T16:21:30;6.97;;;4.55;;
1346;SDS011;667;48.796;9.480;2023-01-01T16:23:56;8.57;;;4.40;;
1346;SDS011;667;48.796;9.480;2023-01-01T16:26:23;7.60;;;6.97;;
1346;SDS011;667;48.796;9.480;2023-01-01T16:28:49;8.57;;;6.80;;
1346;SDS011;667;48.796;9.480;2023-01-01T16:31:15;10.05;;;5.88;;
1346;SDS011;667;48.796;9.480;2023-01-01T16:33:43;12.85;;;5.75;;
1346;SDS011;667;48.796;9.480;2023-01-01T16:36:17;7.85;;;5.15;;
1346;SDS011;667;48.796;9.480;2023-01-01T16:38:42;7.80;;;7.00;;
1346;SDS011;667;48.796;9.480;2023-01-01T16:41:14;6.23;;;5.03;;
1346;SDS011;667;48.796;9.480;2023-01-01T16:43:42;7.45;;;5.22;;
1346;SDS011;667;48.796;9.480;2023-01-01T16:46:08;7.80;;;6.28;;
1346;SDS011;667;48.796;9.480;2023-01-01T16:48:34;5.30;;;4.63;;
1346;SDS011;667;48.796;9.480;2023-01-01T16:51:00;5.78;;;5.00;;
1346;SDS011;667;48.796;9.480;2023-01-01T16:53:26;11.07;;;5.27;;
1346;SDS011;667;48.796;9.480;2023-01-01T16:55:51;9.23;;;5.57;;
1346;SDS011;667;48.796;9.480;2023-01-01T16:58:17;6.30;;;5.67;;
1346;SDS011;667;48.796;9.480;2023-01-01T17:00:44;9.10;;;8.02;;
1346;SDS011;667;48.796;9.480;2023-01-01T17:03:10;8.05;;;7.00;;
1346;SDS011;667;48.796;9.480;2023-01-01T17:05:35;19.20;;;17.20;;
1346;SDS011;667;48.796;9.480;2023-01-01T17:08:01;15.97;;;13.30;;
1346;SDS011;667;48.796;9.480;2023-01-01T17:10:27;15.47;;;13.87;;
1346;SDS011;667;48.796;9.480;2023-01-01T17:12:52;8.73;;;7.83;;
1346;SDS011;667;48.796;9.480;2023-01-01T17:15:22;7.15;;;6.53;;
1346;SDS011;667;48.796;9.480;2023-01-01T17:17:48;7.83;;;6.10;;
1346;SDS011;667;48.796;9.480;2023-01-01T17:20:13;6.00;;;5.10;;
1346;SDS011;667;48.796;9.480;2023-01-01T17:22:39;8.83;;;4.67;;
1346;SDS011;667;48.796;9.480;2023-01-01T17:25:05;8.87;;;5.63;;
1346;SDS011;667;48.796;9.480;2023-01-01T17:27:31;7.38;;;6.70;;
1346;SDS011;667;48.796;9.480;2023-01-01T17:29:58;6.70;;;6.05;;
1346;SDS011;667;48.796;9.480;2023-01-01T17:32:24;7.17;;;6.47;;
1346;SDS011;667;48.796;9.480;2023-01-01T17:34:50;10.00;;;7.10;;
1346;SDS011;667;48.796;9.480;2023-01-01T17:37:15;6.37;;;5.77;;
1346;SDS011;667;48.796;9.480;2023-01-01T17:39:41;6.70;;;5.53;;